UAE6RM LTFM-OMDB
Flight info
| Callsign | UAE6RM |
|---|---|
| Flight time | 4h 21m |
| Altitude | 41000 |
| Route | RATVU1G/17R RATVU UT35 UNEPI UT38 VESAR DCT KRASI DCT 345004N0351456E 344409N0354522E DCT BRAVO DCT KTN DCT ZELAF DCT RASLI DCT TRF DCT KAVID DCT GADLI DCT PAXAN DCT ORSAL DCT TOTAD DCT PASIT DCT MOBAD DCT SOKOP DCT PS6 DCT LADRO DCT MOBAG DCT LOPEP DCT NAGUB DCT RAPMA DCT CHLY3 DCT MUXIT DCT UKRAG DCT ELUDA DCT ASPED DCT PEDOG DCT MURGU DCT KIPOK DCT NALNU DCT IMPED |
| Aircraft | A359/H-SDE2E3GHIJ3J4J5LM1ORWXY/LB1D1 |
Departure
| Time | 2026-04-24 20:29 |
|---|---|
| Airport | İstanbul Airport (LTFM) |
Arrival
| Time | 2026-04-25 00:50 |
|---|---|
| Airport | Dubai International Airport (OMDB) |
| Time | Latitude | Longitude | Altitude | Speed | Heading |
|---|---|---|---|---|---|
| 2026-04-24 19:47 | 41.26244 | 28.73632 | 340 ft | 0 kts | 71° |
| 2026-04-24 19:50 | 41.26069 | 28.73593 | 335 ft | 0 kts | 110° |
| 2026-04-24 20:06 | 41.26072 | 28.73584 | 340 ft | 2 kts | 110° |
| 2026-04-24 20:06 | 41.26079 | 28.73559 | 338 ft | 3 kts | 110° |
| 2026-04-24 20:06 | 41.26085 | 28.73534 | 335 ft | 3 kts | 103° |
| 2026-04-24 20:06 | 41.26088 | 28.73509 | 335 ft | 3 kts | 78° |
| 2026-04-24 20:07 | 41.26084 | 28.73494 | 335 ft | 3 kts | 52° |
| 2026-04-24 20:07 | 41.26071 | 28.73481 | 335 ft | 2 kts | 17° |
| 2026-04-24 20:07 | 41.26054 | 28.73473 | 335 ft | 3 kts | 17° |
| 2026-04-24 20:07 | 41.26040 | 28.73468 | 335 ft | 1 kts | 17° |
| 2026-04-24 20:16 | 41.26043 | 28.73469 | 340 ft | 2 kts | 17° |
| 2026-04-24 20:16 | 41.26077 | 28.73483 | 337 ft | 8 kts | 18° |
| 2026-04-24 20:16 | 41.26154 | 28.73514 | 337 ft | 14 kts | 11° |
| 2026-04-24 20:17 | 41.26201 | 28.73507 | 335 ft | 6 kts | 335° |
| 2026-04-24 20:17 | 41.26221 | 28.73369 | 337 ft | 12 kts | 269° |
| 2026-04-24 20:17 | 41.26236 | 28.73256 | 335 ft | 11 kts | 310° |
| 2026-04-24 20:18 | 41.26281 | 28.73235 | 336 ft | 11 kts | 354° |
| 2026-04-24 20:18 | 41.26419 | 28.73233 | 336 ft | 18 kts | 358° |
| 2026-04-24 20:18 | 41.26563 | 28.73229 | 339 ft | 23 kts | 358° |
| 2026-04-24 20:18 | 41.26715 | 28.73226 | 335 ft | 24 kts | 359° |
| 2026-04-24 20:19 | 41.26868 | 28.73220 | 335 ft | 23 kts | 357° |
| 2026-04-24 20:19 | 41.26959 | 28.73139 | 337 ft | 16 kts | 305° |
| 2026-04-24 20:19 | 41.27014 | 28.73104 | 337 ft | 0 kts | 353° |
| 2026-04-24 20:19 | 41.27035 | 28.73102 | 337 ft | 6 kts | 358° |
| 2026-04-24 20:20 | 41.27103 | 28.73101 | 339 ft | 13 kts | 359° |
| 2026-04-24 20:20 | 41.27212 | 28.73099 | 336 ft | 18 kts | 359° |
| 2026-04-24 20:20 | 41.27325 | 28.73095 | 336 ft | 17 kts | 359° |
| 2026-04-24 20:20 | 41.27393 | 28.73016 | 336 ft | 13 kts | 303° |
| 2026-04-24 20:21 | 41.27477 | 28.72975 | 335 ft | 15 kts | 360° |
| 2026-04-24 20:21 | 41.27600 | 28.72973 | 337 ft | 20 kts | 358° |
| 2026-04-24 20:21 | 41.27757 | 28.72969 | 339 ft | 25 kts | 359° |
| 2026-04-24 20:21 | 41.27935 | 28.72965 | 335 ft | 23 kts | 359° |
| 2026-04-24 20:22 | 41.28108 | 28.72961 | 336 ft | 27 kts | 358° |
| 2026-04-24 20:22 | 41.28308 | 28.72956 | 336 ft | 30 kts | 359° |
| 2026-04-24 20:22 | 41.28530 | 28.72951 | 338 ft | 34 kts | 359° |
| 2026-04-24 20:22 | 41.28765 | 28.72945 | 336 ft | 31 kts | 359° |
| 2026-04-24 20:23 | 41.28965 | 28.72941 | 335 ft | 29 kts | 359° |
| 2026-04-24 20:23 | 41.29141 | 28.72937 | 338 ft | 7 kts | 359° |
| 2026-04-24 20:23 | 41.29216 | 28.72935 | 336 ft | 14 kts | 359° |
| 2026-04-24 20:23 | 41.29330 | 28.72932 | 336 ft | 19 kts | 359° |
| 2026-04-24 20:24 | 41.29428 | 28.72930 | 336 ft | 20 kts | 359° |
| 2026-04-24 20:24 | 41.29483 | 28.72893 | 338 ft | 0 kts | 287° |
| 2026-04-24 20:26 | 41.29488 | 28.72875 | 336 ft | 5 kts | 287° |
| 2026-04-24 20:26 | 41.29491 | 28.72807 | 336 ft | 10 kts | 270° |
| 2026-04-24 20:26 | 41.29491 | 28.72690 | 337 ft | 15 kts | 269° |
| 2026-04-24 20:26 | 41.29487 | 28.72529 | 340 ft | 19 kts | 268° |
| 2026-04-24 20:27 | 41.29473 | 28.72452 | 335 ft | 2 kts | 205° |
| 2026-04-24 20:27 | 41.29455 | 28.72451 | 340 ft | 0 kts | 180° |
| 2026-04-24 20:28 | 41.29445 | 28.72451 | 335 ft | 8 kts | 179° |
| 2026-04-24 20:28 | 41.29134 | 28.72458 | 336 ft | 80 kts | 180° |
| 2026-04-24 20:28 | 41.28358 | 28.72475 | 337 ft | 141 kts | 179° |
| 2026-04-24 20:29 | 41.27619 | 28.72492 | 400 ft | 169 kts | 180° |
| 2026-04-24 20:29 | 41.26073 | 28.72528 | 1400 ft | 166 kts | 180° |
| 2026-04-24 20:29 | 41.24899 | 28.72572 | 2080 ft | 175 kts | 178° |
| 2026-04-24 20:29 | 41.23627 | 28.72640 | 2320 ft | 193 kts | 178° |
| 2026-04-24 20:30 | 41.22198 | 28.72719 | 2472 ft | 218 kts | 178° |
| 2026-04-24 20:30 | 41.20605 | 28.72804 | 2684 ft | 240 kts | 178° |
| 2026-04-24 20:30 | 41.18878 | 28.72785 | 3047 ft | 254 kts | 188° |
| 2026-04-24 20:30 | 41.17257 | 28.71858 | 3595 ft | 259 kts | 217° |
| 2026-04-24 20:31 | 41.15881 | 28.70281 | 4195 ft | 264 kts | 223° |
| 2026-04-24 20:31 | 41.14528 | 28.68599 | 4804 ft | 269 kts | 223° |
| 2026-04-24 20:31 | 41.13114 | 28.66955 | 5366 ft | 273 kts | 216° |
| 2026-04-24 20:31 | 41.11369 | 28.65944 | 5960 ft | 277 kts | 189° |
| 2026-04-24 20:32 | 41.09445 | 28.65967 | 6553 ft | 280 kts | 173° |
| 2026-04-24 20:32 | 41.07511 | 28.66314 | 7121 ft | 284 kts | 171° |
| 2026-04-24 20:32 | 41.05541 | 28.66690 | 7722 ft | 286 kts | 171° |
| 2026-04-24 20:32 | 41.03565 | 28.67058 | 8324 ft | 289 kts | 172° |
| 2026-04-24 20:33 | 41.01560 | 28.67422 | 8920 ft | 292 kts | 172° |
| 2026-04-24 20:33 | 40.99542 | 28.67784 | 9538 ft | 295 kts | 172° |
| 2026-04-24 20:33 | 40.97498 | 28.68148 | 10116 ft | 298 kts | 172° |
| 2026-04-24 20:33 | 40.95401 | 28.68519 | 10417 ft | 311 kts | 172° |
| 2026-04-24 20:34 | 40.93204 | 28.68907 | 10638 ft | 326 kts | 172° |
| 2026-04-24 20:34 | 40.90912 | 28.69310 | 10852 ft | 339 kts | 172° |
| 2026-04-24 20:34 | 40.88519 | 28.69716 | 11060 ft | 352 kts | 173° |
| 2026-04-24 20:34 | 40.86053 | 28.70097 | 11402 ft | 359 kts | 173° |
| 2026-04-24 20:35 | 40.83564 | 28.70480 | 11882 ft | 362 kts | 173° |
| 2026-04-24 20:35 | 40.81056 | 28.70870 | 12316 ft | 366 kts | 173° |
| 2026-04-24 20:35 | 40.78510 | 28.71268 | 12736 ft | 370 kts | 173° |
| 2026-04-24 20:35 | 40.75946 | 28.71670 | 13151 ft | 373 kts | 173° |
| 2026-04-24 20:36 | 40.73358 | 28.72076 | 13587 ft | 376 kts | 173° |
| 2026-04-24 20:36 | 40.70749 | 28.72486 | 13975 ft | 379 kts | 173° |
| 2026-04-24 20:36 | 40.68125 | 28.72898 | 14377 ft | 381 kts | 173° |
| 2026-04-24 20:36 | 40.65517 | 28.73310 | 14850 ft | 381 kts | 173° |
| 2026-04-24 20:37 | 40.62884 | 28.73726 | 15284 ft | 383 kts | 173° |
| 2026-04-24 20:37 | 40.60194 | 28.74146 | 15657 ft | 386 kts | 173° |
| 2026-04-24 20:37 | 40.57555 | 28.74564 | 16025 ft | 389 kts | 173° |
| 2026-04-24 20:37 | 40.54920 | 28.75376 | 16414 ft | 392 kts | 159° |
| 2026-04-24 20:38 | 40.52549 | 28.77142 | 16811 ft | 393 kts | 141° |
| 2026-04-24 20:38 | 40.50463 | 28.79478 | 17195 ft | 396 kts | 137° |
| 2026-04-24 20:38 | 40.48414 | 28.81907 | 17595 ft | 398 kts | 137° |
| 2026-04-24 20:38 | 40.46348 | 28.84352 | 17977 ft | 401 kts | 137° |
| 2026-04-24 20:39 | 40.44261 | 28.86807 | 18339 ft | 404 kts | 137° |
| 2026-04-24 20:39 | 40.42163 | 28.89265 | 18680 ft | 406 kts | 138° |
| 2026-04-24 20:39 | 40.40050 | 28.91733 | 19029 ft | 408 kts | 138° |
| 2026-04-24 20:39 | 40.37925 | 28.94210 | 19376 ft | 409 kts | 137° |
| 2026-04-24 20:40 | 40.35789 | 28.96696 | 19717 ft | 412 kts | 138° |
| 2026-04-24 20:40 | 40.33639 | 28.99195 | 20041 ft | 414 kts | 137° |
| 2026-04-24 20:40 | 40.31357 | 29.01500 | 20368 ft | 417 kts | 148° |
| 2026-04-24 20:40 | 40.28717 | 29.03077 | 20721 ft | 418 kts | 162° |
| 2026-04-24 20:41 | 40.25924 | 29.04146 | 21033 ft | 420 kts | 165° |
| 2026-04-24 20:41 | 40.23096 | 29.05144 | 21356 ft | 422 kts | 165° |
| 2026-04-24 20:41 | 40.20276 | 29.06252 | 21670 ft | 424 kts | 159° |
| 2026-04-24 20:41 | 40.17633 | 29.07982 | 21999 ft | 425 kts | 146° |
| 2026-04-24 20:42 | 40.15300 | 29.10328 | 22356 ft | 425 kts | 139° |
| 2026-04-24 20:42 | 40.13078 | 29.12821 | 22679 ft | 427 kts | 138° |
| 2026-04-24 20:42 | 40.10824 | 29.15363 | 23022 ft | 429 kts | 138° |
| 2026-04-24 20:42 | 40.08567 | 29.17899 | 23339 ft | 430 kts | 138° |
| 2026-04-24 20:43 | 40.06285 | 29.20454 | 23639 ft | 432 kts | 138° |
| 2026-04-24 20:43 | 40.03994 | 29.23012 | 23891 ft | 434 kts | 138° |
| 2026-04-24 20:43 | 40.01696 | 29.25574 | 24182 ft | 435 kts | 138° |
| 2026-04-24 20:43 | 39.99394 | 29.28136 | 24425 ft | 436 kts | 138° |
| 2026-04-24 20:44 | 39.97087 | 29.30702 | 24693 ft | 438 kts | 138° |
| 2026-04-24 20:44 | 39.94763 | 29.33282 | 24968 ft | 439 kts | 138° |
| 2026-04-24 20:44 | 39.92460 | 29.35812 | 25227 ft | 440 kts | 139° |
| 2026-04-24 20:44 | 39.89927 | 29.38081 | 25533 ft | 442 kts | 149° |
| 2026-04-24 20:45 | 39.87185 | 29.39865 | 25871 ft | 442 kts | 154° |
| 2026-04-24 20:45 | 39.84367 | 29.41487 | 26125 ft | 444 kts | 155° |
| 2026-04-24 20:45 | 39.81507 | 29.43036 | 26390 ft | 446 kts | 156° |
| 2026-04-24 20:45 | 39.78617 | 29.44569 | 26647 ft | 448 kts | 156° |
| 2026-04-24 20:46 | 39.75732 | 29.46103 | 26926 ft | 450 kts | 155° |
| 2026-04-24 20:46 | 39.72827 | 29.47661 | 27215 ft | 451 kts | 155° |
| 2026-04-24 20:46 | 39.69967 | 29.49210 | 27527 ft | 453 kts | 155° |
| 2026-04-24 20:46 | 39.67056 | 29.50798 | 27856 ft | 454 kts | 155° |
| 2026-04-24 20:47 | 39.64144 | 29.52389 | 28218 ft | 455 kts | 155° |
| 2026-04-24 20:47 | 39.61213 | 29.53965 | 28524 ft | 457 kts | 156° |
| 2026-04-24 20:47 | 39.58245 | 29.55471 | 28792 ft | 460 kts | 158° |
| 2026-04-24 20:47 | 39.55237 | 29.56948 | 29100 ft | 462 kts | 159° |
| 2026-04-24 20:48 | 39.52224 | 29.58416 | 29420 ft | 464 kts | 159° |
| 2026-04-24 20:48 | 39.49192 | 29.59898 | 29769 ft | 466 kts | 158° |
| 2026-04-24 20:48 | 39.46155 | 29.61391 | 30072 ft | 468 kts | 158° |
| 2026-04-24 20:48 | 39.43146 | 29.62883 | 30379 ft | 469 kts | 160° |
| 2026-04-24 20:49 | 39.40100 | 29.64395 | 30726 ft | 470 kts | 160° |
| 2026-04-24 20:49 | 39.37032 | 29.65918 | 31022 ft | 472 kts | 160° |
| 2026-04-24 20:49 | 39.33960 | 29.67443 | 31310 ft | 475 kts | 160° |
| 2026-04-24 20:49 | 39.30876 | 29.68973 | 31598 ft | 477 kts | 160° |
| 2026-04-24 20:50 | 39.27767 | 29.70514 | 31900 ft | 478 kts | 160° |
| 2026-04-24 20:50 | 39.24659 | 29.72053 | 32162 ft | 480 kts | 160° |
| 2026-04-24 20:50 | 39.21529 | 29.73602 | 32425 ft | 482 kts | 161° |
| 2026-04-24 20:50 | 39.18393 | 29.75153 | 32674 ft | 484 kts | 162° |
| 2026-04-24 20:51 | 39.15243 | 29.76708 | 32933 ft | 486 kts | 162° |
| 2026-04-24 20:51 | 39.12128 | 29.78244 | 33175 ft | 487 kts | 161° |
| 2026-04-24 20:51 | 39.08960 | 29.79804 | 33410 ft | 489 kts | 161° |
| 2026-04-24 20:51 | 39.05768 | 29.81375 | 33639 ft | 490 kts | 161° |
| 2026-04-24 20:52 | 39.02592 | 29.82938 | 33916 ft | 491 kts | 162° |
| 2026-04-24 20:52 | 38.99405 | 29.84506 | 34361 ft | 486 kts | 162° |
| 2026-04-24 20:52 | 38.96259 | 29.86054 | 34775 ft | 482 kts | 163° |
| 2026-04-24 20:52 | 38.93131 | 29.87589 | 35075 ft | 481 kts | 163° |
| 2026-04-24 20:53 | 38.90042 | 29.89100 | 35263 ft | 483 kts | 163° |
| 2026-04-24 20:53 | 38.87917 | 29.90140 | 35399 ft | 484 kts | 163° |
| 2026-04-24 20:53 | 38.83748 | 29.92149 | 35722 ft | 484 kts | 163° |
| 2026-04-24 20:53 | 38.80588 | 29.93645 | 35966 ft | 484 kts | 163° |
| 2026-04-24 20:54 | 38.77430 | 29.95134 | 36214 ft | 485 kts | 163° |
| 2026-04-24 20:54 | 38.74258 | 29.96629 | 36457 ft | 485 kts | 163° |
| 2026-04-24 20:54 | 38.71093 | 29.98123 | 36691 ft | 485 kts | 163° |
| 2026-04-24 20:54 | 38.67922 | 29.99622 | 36921 ft | 486 kts | 163° |
| 2026-04-24 20:55 | 38.64750 | 30.01122 | 37164 ft | 486 kts | 163° |
| 2026-04-24 20:55 | 38.62646 | 30.02117 | 37324 ft | 486 kts | 163° |
| 2026-04-24 20:55 | 38.59480 | 30.03614 | 37551 ft | 487 kts | 163° |
| 2026-04-24 20:55 | 38.55266 | 30.05605 | 37856 ft | 487 kts | 163° |
| 2026-04-24 20:56 | 38.52091 | 30.07103 | 38044 ft | 487 kts | 163° |
| 2026-04-24 20:56 | 38.48901 | 30.08606 | 38140 ft | 490 kts | 163° |
| 2026-04-24 20:56 | 38.45701 | 30.10112 | 38287 ft | 492 kts | 163° |
| 2026-04-24 20:56 | 38.43573 | 30.11113 | 38431 ft | 492 kts | 163° |
| 2026-04-24 20:57 | 38.40361 | 30.12625 | 38692 ft | 490 kts | 163° |
| 2026-04-24 20:57 | 38.37167 | 30.14126 | 38902 ft | 489 kts | 163° |
| 2026-04-24 20:57 | 38.33976 | 30.15623 | 39053 ft | 489 kts | 163° |
| 2026-04-24 20:57 | 38.30785 | 30.17145 | 39183 ft | 490 kts | 161° |
| 2026-04-24 20:58 | 38.26763 | 30.19758 | 39507 ft | 491 kts | 150° |
| 2026-04-24 20:58 | 38.24881 | 30.21467 | 39780 ft | 490 kts | 144° |
| 2026-04-24 20:58 | 38.22383 | 30.24430 | 39950 ft | 494 kts | 135° |
| 2026-04-24 20:58 | 38.20215 | 30.27772 | 40033 ft | 498 kts | 131° |
| 2026-04-24 20:59 | 38.16076 | 30.34849 | 40220 ft | 499 kts | 129° |
| 2026-04-24 20:59 | 38.14045 | 30.38425 | 40339 ft | 500 kts | 129° |
| 2026-04-24 20:59 | 38.12008 | 30.42000 | 40454 ft | 499 kts | 129° |
| 2026-04-24 21:00 | 38.09967 | 30.45555 | 40626 ft | 498 kts | 130° |
| 2026-04-24 21:00 | 38.07918 | 30.49100 | 40725 ft | 498 kts | 130° |
| 2026-04-24 21:00 | 38.03813 | 30.56147 | 40951 ft | 497 kts | 130° |
| 2026-04-24 21:01 | 37.99686 | 30.63196 | 40995 ft | 498 kts | 130° |
| 2026-04-24 21:01 | 37.95581 | 30.70202 | 40994 ft | 498 kts | 130° |
| 2026-04-24 21:02 | 37.91460 | 30.77243 | 40985 ft | 498 kts | 130° |
| 2026-04-24 21:02 | 37.87344 | 30.84263 | 40987 ft | 496 kts | 130° |
| 2026-04-24 21:03 | 37.83257 | 30.91215 | 40983 ft | 495 kts | 130° |
| 2026-04-24 21:03 | 37.79142 | 30.98199 | 40991 ft | 495 kts | 130° |
| 2026-04-24 21:04 | 37.75025 | 31.05171 | 40989 ft | 495 kts | 131° |
| 2026-04-24 21:04 | 37.70902 | 31.12138 | 40985 ft | 495 kts | 131° |
| 2026-04-24 21:05 | 37.66781 | 31.19089 | 40985 ft | 495 kts | 131° |
| 2026-04-24 21:05 | 37.62677 | 31.25995 | 40988 ft | 495 kts | 131° |
| 2026-04-24 21:06 | 37.58547 | 31.32933 | 40983 ft | 495 kts | 131° |
| 2026-04-24 21:06 | 37.54403 | 31.39879 | 40982 ft | 495 kts | 131° |
| 2026-04-24 21:07 | 37.50262 | 31.46803 | 40976 ft | 495 kts | 131° |
| 2026-04-24 21:07 | 37.46150 | 31.53667 | 40965 ft | 493 kts | 131° |
| 2026-04-24 21:08 | 37.42020 | 31.60547 | 40975 ft | 493 kts | 131° |
| 2026-04-24 21:08 | 37.37878 | 31.67429 | 40979 ft | 493 kts | 131° |
| 2026-04-24 21:09 | 37.33739 | 31.74302 | 40978 ft | 493 kts | 131° |
| 2026-04-24 21:09 | 37.29620 | 31.81101 | 40968 ft | 492 kts | 132° |
| 2026-04-24 21:10 | 37.25459 | 31.87949 | 40974 ft | 495 kts | 132° |
| 2026-04-24 21:10 | 37.21273 | 31.94833 | 40976 ft | 497 kts | 132° |
| 2026-04-24 21:11 | 37.17078 | 32.01723 | 40981 ft | 496 kts | 132° |
| 2026-04-24 21:11 | 37.12890 | 32.08590 | 40973 ft | 496 kts | 132° |
| 2026-04-24 21:12 | 37.08713 | 32.15419 | 40970 ft | 497 kts | 132° |
| 2026-04-24 21:12 | 37.04506 | 32.22283 | 40979 ft | 497 kts | 132° |
| 2026-04-24 21:13 | 37.00290 | 32.29151 | 40980 ft | 497 kts | 132° |
| 2026-04-24 21:13 | 36.96102 | 32.35961 | 40968 ft | 497 kts | 133° |
| 2026-04-24 21:14 | 36.91880 | 32.42806 | 40964 ft | 498 kts | 133° |
| 2026-04-24 21:14 | 36.87642 | 32.49670 | 40982 ft | 499 kts | 132° |
| 2026-04-24 21:15 | 36.83403 | 32.56527 | 40964 ft | 499 kts | 133° |
| 2026-04-24 21:15 | 36.79161 | 32.63371 | 40973 ft | 499 kts | 133° |
| 2026-04-24 21:16 | 36.74935 | 32.70173 | 40971 ft | 500 kts | 133° |
| 2026-04-24 21:16 | 36.70672 | 32.77024 | 40968 ft | 500 kts | 133° |
| 2026-04-24 21:17 | 36.66402 | 32.83876 | 40965 ft | 500 kts | 133° |
| 2026-04-24 21:17 | 36.62133 | 32.90712 | 40944 ft | 500 kts | 133° |
| 2026-04-24 21:18 | 36.57892 | 32.97486 | 40955 ft | 499 kts | 133° |
| 2026-04-24 21:18 | 36.53617 | 33.04304 | 40953 ft | 499 kts | 133° |
| 2026-04-24 21:19 | 36.49346 | 33.11099 | 40945 ft | 499 kts | 133° |
| 2026-04-24 21:19 | 36.45063 | 33.17899 | 40929 ft | 499 kts | 133° |
| 2026-04-24 21:20 | 36.40080 | 33.25794 | 40936 ft | 500 kts | 133° |
| 2026-04-24 21:21 | 36.34371 | 33.34824 | 40938 ft | 500 kts | 133° |
| 2026-04-24 21:21 | 36.30065 | 33.41595 | 40933 ft | 500 kts | 133° |
| 2026-04-24 21:22 | 36.25753 | 33.48359 | 40929 ft | 500 kts | 134° |
| 2026-04-24 21:22 | 36.21470 | 33.55071 | 40931 ft | 500 kts | 134° |
| 2026-04-24 21:23 | 36.17153 | 33.61825 | 40933 ft | 500 kts | 134° |
| 2026-04-24 21:23 | 36.12830 | 33.68577 | 40917 ft | 500 kts | 134° |
| 2026-04-24 21:24 | 36.08512 | 33.75307 | 40929 ft | 500 kts | 134° |
| 2026-04-24 21:24 | 36.04186 | 33.82037 | 40928 ft | 499 kts | 134° |
| 2026-04-24 21:25 | 35.99894 | 33.88698 | 40925 ft | 499 kts | 134° |
| 2026-04-24 21:25 | 35.95563 | 33.95410 | 40905 ft | 499 kts | 134° |
| 2026-04-24 21:26 | 35.90889 | 34.01629 | 40927 ft | 489 kts | 147° |
| 2026-04-24 21:26 | 35.85323 | 34.06286 | 40925 ft | 482 kts | 154° |
| 2026-04-24 21:27 | 35.79615 | 34.10493 | 40930 ft | 481 kts | 155° |
| 2026-04-24 21:27 | 35.73852 | 34.14659 | 40927 ft | 481 kts | 155° |
| 2026-04-24 21:28 | 35.68089 | 34.18850 | 40928 ft | 481 kts | 155° |
| 2026-04-24 21:28 | 35.62336 | 34.23053 | 40921 ft | 481 kts | 155° |
| 2026-04-24 21:29 | 35.56572 | 34.27264 | 40935 ft | 483 kts | 155° |
| 2026-04-24 21:29 | 35.50822 | 34.31458 | 40920 ft | 484 kts | 155° |
| 2026-04-24 21:30 | 35.45037 | 34.35671 | 40919 ft | 484 kts | 155° |
| 2026-04-24 21:30 | 35.39247 | 34.39879 | 40926 ft | 484 kts | 155° |
| 2026-04-24 21:31 | 35.33453 | 34.44082 | 40938 ft | 484 kts | 155° |
| 2026-04-24 21:31 | 35.27803 | 34.48614 | 40925 ft | 491 kts | 146° |
| 2026-04-24 21:32 | 35.23264 | 34.54893 | 40925 ft | 506 kts | 126° |
| 2026-04-24 21:32 | 35.19918 | 34.62526 | 40924 ft | 511 kts | 121° |
| 2026-04-24 21:33 | 35.16815 | 34.70350 | 40924 ft | 512 kts | 120° |
| 2026-04-24 21:33 | 35.13711 | 34.78172 | 40924 ft | 512 kts | 121° |
| 2026-04-24 21:34 | 35.10588 | 34.85914 | 40922 ft | 511 kts | 121° |
| 2026-04-24 21:34 | 35.07423 | 34.93681 | 40922 ft | 511 kts | 121° |
| 2026-04-24 21:35 | 35.04246 | 35.01451 | 40915 ft | 511 kts | 121° |
| 2026-04-24 21:35 | 35.01070 | 35.09204 | 40916 ft | 512 kts | 121° |
| 2026-04-24 21:36 | 34.97905 | 35.16917 | 40916 ft | 512 kts | 121° |
| 2026-04-24 21:36 | 34.94718 | 35.24667 | 40916 ft | 511 kts | 121° |
| 2026-04-24 21:37 | 34.91522 | 35.32420 | 40920 ft | 512 kts | 121° |
| 2026-04-24 21:37 | 34.88319 | 35.40171 | 40918 ft | 512 kts | 121° |
| 2026-04-24 21:38 | 34.85113 | 35.47914 | 40918 ft | 512 kts | 121° |
| 2026-04-24 21:38 | 34.81923 | 35.55598 | 40913 ft | 512 kts | 121° |
| 2026-04-24 21:39 | 34.78706 | 35.63328 | 40912 ft | 512 kts | 121° |
| 2026-04-24 21:39 | 34.75511 | 35.71068 | 40911 ft | 514 kts | 118° |
| 2026-04-24 21:40 | 34.73519 | 35.79456 | 40914 ft | 523 kts | 99° |
| 2026-04-24 21:40 | 34.72917 | 35.88238 | 40922 ft | 526 kts | 96° |
| 2026-04-24 21:41 | 34.72554 | 35.97119 | 40925 ft | 527 kts | 95° |
| 2026-04-24 21:41 | 34.72195 | 36.06007 | 40929 ft | 526 kts | 96° |
| 2026-04-24 21:42 | 34.71797 | 36.14891 | 40929 ft | 526 kts | 96° |
| 2026-04-24 21:42 | 34.71375 | 36.23778 | 40926 ft | 526 kts | 96° |
| 2026-04-24 21:43 | 34.70946 | 36.32604 | 40933 ft | 527 kts | 96° |
| 2026-04-24 21:43 | 34.70508 | 36.41495 | 40936 ft | 527 kts | 96° |
| 2026-04-24 21:44 | 34.70065 | 36.50389 | 40924 ft | 527 kts | 96° |
| 2026-04-24 21:44 | 34.69372 | 36.59229 | 40939 ft | 523 kts | 105° |
| 2026-04-24 21:45 | 34.66851 | 36.67368 | 40938 ft | 509 kts | 126° |
| 2026-04-24 21:45 | 34.62539 | 36.73954 | 40937 ft | 499 kts | 139° |
| 2026-04-24 21:46 | 34.57712 | 36.80014 | 40940 ft | 500 kts | 140° |
| 2026-04-24 21:46 | 34.52825 | 36.86006 | 40938 ft | 500 kts | 140° |
| 2026-04-24 21:47 | 34.47954 | 36.92027 | 40937 ft | 500 kts | 140° |
| 2026-04-24 21:47 | 34.43097 | 36.98070 | 40936 ft | 500 kts | 140° |
| 2026-04-24 21:48 | 34.38241 | 37.04116 | 40926 ft | 501 kts | 140° |
| 2026-04-24 21:48 | 34.33407 | 37.10121 | 40940 ft | 501 kts | 140° |
| 2026-04-24 21:49 | 34.28539 | 37.16157 | 40931 ft | 501 kts | 140° |
| 2026-04-24 21:49 | 34.23554 | 37.22024 | 40935 ft | 496 kts | 147° |
| 2026-04-24 21:50 | 34.17850 | 37.26355 | 40907 ft | 485 kts | 158° |
| 2026-04-24 21:50 | 34.11858 | 37.30069 | 40929 ft | 483 kts | 160° |
| 2026-04-24 21:51 | 34.05834 | 37.33671 | 40918 ft | 483 kts | 160° |
| 2026-04-24 21:51 | 33.99815 | 37.37283 | 40920 ft | 483 kts | 159° |
| 2026-04-24 21:52 | 33.93803 | 37.40912 | 40911 ft | 483 kts | 159° |
| 2026-04-24 21:52 | 33.87832 | 37.44523 | 40909 ft | 483 kts | 159° |
| 2026-04-24 21:53 | 33.81826 | 37.48149 | 40896 ft | 483 kts | 160° |
| 2026-04-24 21:53 | 33.75826 | 37.51764 | 40906 ft | 482 kts | 160° |
| 2026-04-24 21:54 | 33.69825 | 37.55374 | 40900 ft | 483 kts | 160° |
| 2026-04-24 21:54 | 33.63818 | 37.58981 | 40883 ft | 482 kts | 160° |
| 2026-04-24 21:55 | 33.57852 | 37.62558 | 40896 ft | 483 kts | 160° |
| 2026-04-24 21:55 | 33.51836 | 37.66159 | 40890 ft | 483 kts | 160° |
| 2026-04-24 21:56 | 33.45823 | 37.69754 | 40886 ft | 483 kts | 160° |
| 2026-04-24 21:56 | 33.39846 | 37.73321 | 40883 ft | 483 kts | 160° |
| 2026-04-24 21:57 | 33.33825 | 37.76908 | 40883 ft | 484 kts | 160° |
| 2026-04-24 21:57 | 33.27790 | 37.80498 | 40884 ft | 485 kts | 160° |
| 2026-04-24 21:58 | 33.21757 | 37.84083 | 40885 ft | 485 kts | 160° |
| 2026-04-24 21:58 | 33.15721 | 37.87663 | 40884 ft | 485 kts | 160° |
| 2026-04-24 21:59 | 33.09716 | 37.91220 | 40870 ft | 484 kts | 160° |
| 2026-04-24 21:59 | 33.03688 | 37.94785 | 40881 ft | 484 kts | 160° |
| 2026-04-24 22:00 | 32.97668 | 37.98341 | 40882 ft | 481 kts | 160° |
| 2026-04-24 22:00 | 32.91689 | 38.01878 | 40882 ft | 479 kts | 160° |
| 2026-04-24 22:01 | 32.85726 | 38.05429 | 40884 ft | 479 kts | 160° |
| 2026-04-24 22:01 | 32.79792 | 38.08961 | 40881 ft | 481 kts | 160° |
| 2026-04-24 22:02 | 32.73798 | 38.12519 | 40881 ft | 482 kts | 160° |
| 2026-04-24 22:02 | 32.67802 | 38.16075 | 40881 ft | 482 kts | 160° |
| 2026-04-24 22:03 | 32.61810 | 38.19622 | 40872 ft | 482 kts | 160° |
| 2026-04-24 22:03 | 32.55855 | 38.23143 | 40875 ft | 481 kts | 160° |
| 2026-04-24 22:04 | 32.49868 | 38.26675 | 40883 ft | 481 kts | 160° |
| 2026-04-24 22:04 | 32.43871 | 38.30208 | 40884 ft | 481 kts | 160° |
| 2026-04-24 22:05 | 32.37888 | 38.33728 | 40880 ft | 481 kts | 160° |
| 2026-04-24 22:05 | 32.31900 | 38.37245 | 40878 ft | 481 kts | 160° |
| 2026-04-24 22:06 | 32.25948 | 38.40737 | 40877 ft | 480 kts | 160° |
| 2026-04-24 22:06 | 32.19968 | 38.44240 | 40893 ft | 480 kts | 160° |
| 2026-04-24 22:07 | 32.13990 | 38.47737 | 40879 ft | 480 kts | 160° |
| 2026-04-24 22:07 | 32.08009 | 38.51229 | 40886 ft | 480 kts | 160° |
| 2026-04-24 22:08 | 32.02070 | 38.54692 | 40884 ft | 480 kts | 160° |
| 2026-04-24 22:08 | 31.96086 | 38.58176 | 40892 ft | 480 kts | 160° |
| 2026-04-24 22:09 | 31.90088 | 38.61664 | 40899 ft | 480 kts | 160° |
| 2026-04-24 22:09 | 31.84100 | 38.65147 | 40905 ft | 480 kts | 160° |
| 2026-04-24 22:10 | 31.78147 | 38.68605 | 40909 ft | 480 kts | 160° |
| 2026-04-24 22:10 | 31.72203 | 38.72180 | 40911 ft | 484 kts | 155° |
| 2026-04-24 22:11 | 31.66913 | 38.77246 | 40916 ft | 499 kts | 140° |
| 2026-04-24 22:11 | 31.62250 | 38.83328 | 40894 ft | 503 kts | 137° |
| 2026-04-24 22:12 | 31.57702 | 38.89566 | 40885 ft | 503 kts | 137° |
| 2026-04-24 22:12 | 31.53186 | 38.95739 | 40903 ft | 502 kts | 137° |
| 2026-04-24 22:13 | 31.48605 | 39.01932 | 40900 ft | 502 kts | 137° |
| 2026-04-24 22:13 | 31.44025 | 39.08089 | 40903 ft | 502 kts | 137° |
| 2026-04-24 22:14 | 31.39439 | 39.14242 | 40901 ft | 501 kts | 138° |
| 2026-04-24 22:14 | 31.34882 | 39.20348 | 40910 ft | 502 kts | 138° |
| 2026-04-24 22:15 | 31.30285 | 39.26498 | 40914 ft | 502 kts | 138° |
| 2026-04-24 22:15 | 31.25695 | 39.32630 | 40917 ft | 502 kts | 138° |
| 2026-04-24 22:16 | 31.21092 | 39.38771 | 40921 ft | 502 kts | 138° |
| 2026-04-24 22:16 | 31.16522 | 39.44856 | 40924 ft | 502 kts | 138° |
| 2026-04-24 22:17 | 31.11922 | 39.50972 | 40924 ft | 502 kts | 138° |
| 2026-04-24 22:17 | 31.07315 | 39.57088 | 40925 ft | 502 kts | 138° |
| 2026-04-24 22:18 | 31.02711 | 39.63193 | 40935 ft | 501 kts | 139° |
| 2026-04-24 22:18 | 30.98134 | 39.69250 | 40935 ft | 501 kts | 139° |
| 2026-04-24 22:19 | 30.93522 | 39.75341 | 40939 ft | 501 kts | 139° |
| 2026-04-24 22:19 | 30.88912 | 39.81421 | 40932 ft | 501 kts | 139° |
| 2026-04-24 22:20 | 30.84297 | 39.87499 | 40947 ft | 502 kts | 139° |
| 2026-04-24 22:20 | 30.79672 | 39.93580 | 40945 ft | 502 kts | 139° |
| 2026-04-24 22:21 | 30.75076 | 39.99613 | 40949 ft | 502 kts | 139° |
| 2026-04-24 22:21 | 30.70447 | 40.05682 | 40951 ft | 502 kts | 139° |
| 2026-04-24 22:22 | 30.65801 | 40.11761 | 40955 ft | 503 kts | 139° |
| 2026-04-24 22:22 | 30.61178 | 40.17860 | 40954 ft | 506 kts | 136° |
| 2026-04-24 22:23 | 30.57295 | 40.24805 | 40958 ft | 516 kts | 127° |
| 2026-04-24 22:23 | 30.53805 | 40.32054 | 40948 ft | 519 kts | 126° |
| 2026-04-24 22:24 | 30.50345 | 40.39411 | 40964 ft | 520 kts | 126° |
| 2026-04-24 22:24 | 30.46867 | 40.46763 | 40948 ft | 519 kts | 126° |
| 2026-04-24 22:25 | 30.43373 | 40.54089 | 40961 ft | 520 kts | 126° |
| 2026-04-24 22:25 | 30.39829 | 40.61314 | 40965 ft | 515 kts | 131° |
| 2026-04-24 22:25 | 30.37688 | 40.64581 | 40965 ft | 504 kts | 140° |
| 2026-04-24 22:26 | 30.35255 | 40.67449 | 40963 ft | 498 kts | 144° |
| 2026-04-24 22:26 | 30.30178 | 40.72872 | 40962 ft | 496 kts | 147° |
| 2026-04-24 22:27 | 30.25022 | 40.78172 | 40966 ft | 495 kts | 147° |
| 2026-04-24 22:27 | 30.19910 | 40.83430 | 40966 ft | 496 kts | 147° |
| 2026-04-24 22:28 | 30.14768 | 40.88746 | 40963 ft | 496 kts | 147° |
| 2026-04-24 22:28 | 30.09631 | 40.94064 | 40959 ft | 495 kts | 147° |
| 2026-04-24 22:29 | 30.01945 | 41.02010 | 40964 ft | 494 kts | 147° |
| 2026-04-24 22:29 | 29.96849 | 41.07265 | 40968 ft | 495 kts | 147° |
| 2026-04-24 22:30 | 29.91725 | 41.12542 | 40969 ft | 495 kts | 147° |
| 2026-04-24 22:30 | 29.86586 | 41.17827 | 40963 ft | 495 kts | 147° |
| 2026-04-24 22:31 | 29.81453 | 41.23099 | 40971 ft | 494 kts | 147° |
| 2026-04-24 22:31 | 29.76320 | 41.28363 | 40966 ft | 494 kts | 147° |
| 2026-04-24 22:32 | 29.71410 | 41.33996 | 40967 ft | 502 kts | 142° |
| 2026-04-24 22:32 | 29.66725 | 41.39895 | 40963 ft | 504 kts | 141° |
| 2026-04-24 22:33 | 29.62022 | 41.45897 | 40960 ft | 505 kts | 141° |
| 2026-04-24 22:33 | 29.57310 | 41.51898 | 40960 ft | 505 kts | 141° |
| 2026-04-24 22:34 | 29.52599 | 41.57873 | 40943 ft | 505 kts | 142° |
| 2026-04-24 22:34 | 29.47897 | 41.63817 | 40949 ft | 506 kts | 142° |
| 2026-04-24 22:35 | 29.43156 | 41.69801 | 40946 ft | 507 kts | 142° |
| 2026-04-24 22:35 | 29.38416 | 41.75777 | 40946 ft | 506 kts | 142° |
| 2026-04-24 22:36 | 29.33669 | 41.81753 | 40941 ft | 507 kts | 142° |
| 2026-04-24 22:36 | 29.28914 | 41.87730 | 40936 ft | 508 kts | 142° |
| 2026-04-24 22:37 | 29.24183 | 41.93668 | 40939 ft | 508 kts | 142° |
| 2026-04-24 22:37 | 29.19416 | 41.99641 | 40910 ft | 508 kts | 142° |
| 2026-04-24 22:38 | 29.14632 | 42.05626 | 40928 ft | 510 kts | 142° |
| 2026-04-24 22:38 | 29.09837 | 42.11618 | 40927 ft | 511 kts | 142° |
| 2026-04-24 22:39 | 29.05072 | 42.17565 | 40926 ft | 511 kts | 142° |
| 2026-04-24 22:39 | 29.00269 | 42.23551 | 40924 ft | 511 kts | 142° |
| 2026-04-24 22:40 | 28.95463 | 42.29524 | 40912 ft | 511 kts | 142° |
| 2026-04-24 22:40 | 28.90648 | 42.35501 | 40920 ft | 511 kts | 142° |
| 2026-04-24 22:41 | 28.85867 | 42.41429 | 40884 ft | 511 kts | 143° |
| 2026-04-24 22:41 | 28.81829 | 42.46431 | 40916 ft | 511 kts | 143° |
| 2026-04-24 22:42 | 28.76232 | 42.53351 | 40917 ft | 511 kts | 143° |
| 2026-04-24 22:42 | 28.71415 | 42.59296 | 40918 ft | 511 kts | 143° |
| 2026-04-24 22:43 | 28.66591 | 42.65244 | 40913 ft | 511 kts | 143° |
| 2026-04-24 22:43 | 28.61807 | 42.71133 | 40921 ft | 510 kts | 143° |
| 2026-04-24 22:44 | 28.56986 | 42.77058 | 40919 ft | 510 kts | 143° |
| 2026-04-24 22:44 | 28.52163 | 42.82977 | 40924 ft | 510 kts | 143° |
| 2026-04-24 22:45 | 28.47338 | 42.88890 | 40924 ft | 510 kts | 143° |
| 2026-04-24 22:45 | 28.42512 | 42.94795 | 40927 ft | 511 kts | 143° |
| 2026-04-24 22:46 | 28.37707 | 43.00667 | 40926 ft | 511 kts | 143° |
| 2026-04-24 22:46 | 28.32860 | 43.06581 | 40927 ft | 512 kts | 143° |
| 2026-04-24 22:47 | 28.27996 | 43.12507 | 40925 ft | 513 kts | 143° |
| 2026-04-24 22:47 | 28.23130 | 43.18429 | 40925 ft | 513 kts | 143° |
| 2026-04-24 22:48 | 28.18297 | 43.24302 | 40920 ft | 513 kts | 143° |
| 2026-04-24 22:48 | 28.13424 | 43.30216 | 40920 ft | 513 kts | 143° |
| 2026-04-24 22:49 | 28.08547 | 43.36124 | 40919 ft | 513 kts | 143° |
| 2026-04-24 22:49 | 28.03674 | 43.42020 | 40906 ft | 513 kts | 143° |
| 2026-04-24 22:50 | 27.98793 | 43.47914 | 40925 ft | 514 kts | 143° |
| 2026-04-24 22:50 | 27.93926 | 43.53785 | 40927 ft | 515 kts | 143° |
| 2026-04-24 22:51 | 27.89034 | 43.59681 | 40928 ft | 515 kts | 143° |
| 2026-04-24 22:51 | 27.84130 | 43.65581 | 40923 ft | 515 kts | 143° |
| 2026-04-24 22:52 | 27.79093 | 43.71263 | 40933 ft | 509 kts | 146° |
| 2026-04-24 22:52 | 27.73974 | 43.76708 | 40936 ft | 509 kts | 147° |
| 2026-04-24 22:53 | 27.68832 | 43.82203 | 40941 ft | 510 kts | 146° |
| 2026-04-24 22:53 | 27.63708 | 43.87739 | 40944 ft | 510 kts | 146° |
| 2026-04-24 22:54 | 27.58598 | 43.93281 | 40946 ft | 510 kts | 146° |
| 2026-04-24 22:54 | 27.53484 | 43.98822 | 40948 ft | 510 kts | 146° |
| 2026-04-24 22:55 | 27.48405 | 44.04314 | 40940 ft | 510 kts | 146° |
| 2026-04-24 22:55 | 27.43288 | 44.09838 | 40959 ft | 510 kts | 146° |
| 2026-04-24 22:56 | 27.38159 | 44.15368 | 40951 ft | 510 kts | 146° |
| 2026-04-24 22:56 | 27.33019 | 44.20901 | 40951 ft | 511 kts | 146° |
| 2026-04-24 22:57 | 27.27920 | 44.26384 | 40952 ft | 511 kts | 146° |
| 2026-04-24 22:57 | 27.22781 | 44.31898 | 40946 ft | 511 kts | 146° |
| 2026-04-24 22:58 | 27.20081 | 44.34424 | 40944 ft | 500 kts | 154° |
| 2026-04-24 22:58 | 27.17167 | 44.36445 | 40961 ft | 486 kts | 163° |
| 2026-04-24 22:58 | 27.14092 | 44.37893 | 40946 ft | 472 kts | 173° |
| 2026-04-24 22:58 | 27.10952 | 44.38739 | 40966 ft | 459 kts | 182° |
| 2026-04-24 22:59 | 27.04655 | 44.39571 | 40951 ft | 454 kts | 185° |
| 2026-04-24 23:00 | 26.95249 | 44.40472 | 40963 ft | 456 kts | 185° |
| 2026-04-24 23:00 | 26.88923 | 44.41105 | 40966 ft | 457 kts | 185° |
| 2026-04-24 23:01 | 26.82584 | 44.41771 | 40970 ft | 457 kts | 184° |
| 2026-04-24 23:01 | 26.76261 | 44.42442 | 40961 ft | 457 kts | 184° |
| 2026-04-24 23:02 | 26.69903 | 44.43113 | 40969 ft | 459 kts | 184° |
| 2026-04-24 23:02 | 26.63571 | 44.43778 | 40963 ft | 460 kts | 184° |
| 2026-04-24 23:03 | 26.57203 | 44.44468 | 40970 ft | 460 kts | 184° |
| 2026-04-24 23:03 | 26.50832 | 44.45272 | 40976 ft | 463 kts | 183° |
| 2026-04-24 23:04 | 26.44461 | 44.46098 | 40981 ft | 464 kts | 183° |
| 2026-04-24 23:04 | 26.38053 | 44.46915 | 40985 ft | 464 kts | 183° |
| 2026-04-24 23:05 | 26.31636 | 44.47722 | 40956 ft | 464 kts | 183° |
| 2026-04-24 23:05 | 26.25213 | 44.48523 | 40984 ft | 466 kts | 183° |
| 2026-04-24 23:06 | 26.18760 | 44.49327 | 40988 ft | 466 kts | 183° |
| 2026-04-24 23:06 | 26.12309 | 44.50132 | 40990 ft | 466 kts | 183° |
| 2026-04-24 23:07 | 26.05904 | 44.50931 | 40988 ft | 467 kts | 183° |
| 2026-04-24 23:07 | 25.99453 | 44.51734 | 40993 ft | 468 kts | 183° |
| 2026-04-24 23:08 | 25.92971 | 44.52540 | 40998 ft | 468 kts | 183° |
| 2026-04-24 23:08 | 25.86496 | 44.53346 | 41001 ft | 468 kts | 183° |
| 2026-04-24 23:09 | 25.80061 | 44.54144 | 41009 ft | 470 kts | 184° |
| 2026-04-24 23:09 | 25.73556 | 44.54950 | 41016 ft | 470 kts | 184° |
| 2026-04-24 23:10 | 25.67064 | 44.55755 | 41016 ft | 470 kts | 184° |
| 2026-04-24 23:10 | 25.60567 | 44.56556 | 41017 ft | 470 kts | 184° |
| 2026-04-24 23:11 | 25.54042 | 44.57566 | 41028 ft | 482 kts | 176° |
| 2026-04-24 23:11 | 25.50797 | 44.58675 | 41034 ft | 493 kts | 168° |
| 2026-04-24 23:11 | 25.47638 | 44.60051 | 41032 ft | 496 kts | 167° |
| 2026-04-24 23:12 | 25.41279 | 44.63074 | 41036 ft | 499 kts | 166° |
| 2026-04-24 23:12 | 25.34928 | 44.66168 | 41037 ft | 499 kts | 166° |
| 2026-04-24 23:13 | 25.28554 | 44.69239 | 41046 ft | 501 kts | 166° |
| 2026-04-24 23:13 | 25.22192 | 44.72277 | 41045 ft | 501 kts | 166° |
| 2026-04-24 23:14 | 25.15790 | 44.75325 | 41052 ft | 501 kts | 166° |
| 2026-04-24 23:14 | 25.09387 | 44.78368 | 41050 ft | 501 kts | 166° |
| 2026-04-24 23:15 | 25.04058 | 44.80900 | 41054 ft | 501 kts | 166° |
| 2026-04-24 23:15 | 24.97666 | 44.83933 | 41056 ft | 501 kts | 166° |
| 2026-04-24 23:16 | 24.90225 | 44.87459 | 41055 ft | 501 kts | 166° |
| 2026-04-24 23:16 | 24.84854 | 44.90002 | 41052 ft | 501 kts | 166° |
| 2026-04-24 23:17 | 24.78488 | 44.93012 | 41051 ft | 502 kts | 166° |
| 2026-04-24 23:17 | 24.72059 | 44.96064 | 41050 ft | 506 kts | 165° |
| 2026-04-24 23:18 | 24.64763 | 45.00331 | 41052 ft | 513 kts | 160° |
| 2026-04-24 23:18 | 24.58534 | 45.04167 | 41038 ft | 514 kts | 160° |
| 2026-04-24 23:19 | 24.53345 | 45.07375 | 41044 ft | 515 kts | 160° |
| 2026-04-24 23:19 | 24.47093 | 45.11225 | 41045 ft | 516 kts | 160° |
| 2026-04-24 23:20 | 24.40823 | 45.15074 | 41044 ft | 516 kts | 160° |
| 2026-04-24 23:20 | 24.34543 | 45.18918 | 41046 ft | 518 kts | 160° |
| 2026-04-24 23:21 | 24.28283 | 45.22746 | 41036 ft | 519 kts | 160° |
| 2026-04-24 23:21 | 24.21977 | 45.26601 | 41009 ft | 519 kts | 160° |
| 2026-04-24 23:22 | 24.15644 | 45.30466 | 41032 ft | 523 kts | 160° |
| 2026-04-24 23:22 | 24.09275 | 45.34348 | 41021 ft | 524 kts | 160° |
| 2026-04-24 23:23 | 24.02912 | 45.38225 | 41009 ft | 524 kts | 160° |
| 2026-04-24 23:23 | 23.96568 | 45.42084 | 41019 ft | 526 kts | 160° |
| 2026-04-24 23:24 | 23.90211 | 45.46069 | 41016 ft | 528 kts | 158° |
| 2026-04-24 23:24 | 23.83868 | 45.50161 | 41002 ft | 529 kts | 158° |
| 2026-04-24 23:25 | 23.77526 | 45.54238 | 41006 ft | 530 kts | 158° |
| 2026-04-24 23:25 | 23.71264 | 45.58416 | 41002 ft | 538 kts | 151° |
| 2026-04-24 23:25 | 23.68398 | 45.61092 | 41002 ft | 549 kts | 141° |
| 2026-04-24 23:26 | 23.65955 | 45.64328 | 40989 ft | 559 kts | 128° |
| 2026-04-24 23:26 | 23.64085 | 45.68074 | 40994 ft | 568 kts | 115° |
| 2026-04-24 23:26 | 23.62910 | 45.72208 | 40999 ft | 572 kts | 102° |
| 2026-04-24 23:27 | 23.61909 | 45.80835 | 40981 ft | 575 kts | 95° |
| 2026-04-24 23:27 | 23.61256 | 45.89471 | 40990 ft | 575 kts | 95° |
| 2026-04-24 23:28 | 23.60589 | 45.98153 | 40978 ft | 575 kts | 95° |
| 2026-04-24 23:28 | 23.59856 | 46.06821 | 40991 ft | 574 kts | 96° |
| 2026-04-24 23:29 | 23.59092 | 46.15480 | 40999 ft | 574 kts | 96° |
| 2026-04-24 23:29 | 23.58321 | 46.24128 | 40992 ft | 573 kts | 96° |
| 2026-04-24 23:30 | 23.57552 | 46.32702 | 40992 ft | 572 kts | 96° |
| 2026-04-24 23:30 | 23.56784 | 46.41315 | 41006 ft | 571 kts | 96° |
| 2026-04-24 23:31 | 23.56010 | 46.49926 | 41011 ft | 570 kts | 96° |
| 2026-04-24 23:31 | 23.55233 | 46.58530 | 40999 ft | 570 kts | 96° |
| 2026-04-24 23:32 | 23.54443 | 46.67117 | 40996 ft | 570 kts | 96° |
| 2026-04-24 23:32 | 23.53657 | 46.75653 | 40991 ft | 570 kts | 96° |
| 2026-04-24 23:33 | 23.52860 | 46.84247 | 40989 ft | 570 kts | 96° |
| 2026-04-24 23:33 | 23.52060 | 46.92843 | 40987 ft | 570 kts | 96° |
| 2026-04-24 23:34 | 23.51255 | 47.01434 | 40989 ft | 569 kts | 96° |
| 2026-04-24 23:34 | 23.50453 | 47.09943 | 40976 ft | 568 kts | 96° |
| 2026-04-24 23:35 | 23.49641 | 47.18497 | 40974 ft | 568 kts | 96° |
| 2026-04-24 23:35 | 23.48827 | 47.27039 | 40960 ft | 566 kts | 96° |
| 2026-04-24 23:36 | 23.48014 | 47.35515 | 40959 ft | 566 kts | 96° |
| 2026-04-24 23:36 | 23.47192 | 47.44036 | 40956 ft | 565 kts | 97° |
| 2026-04-24 23:37 | 23.46367 | 47.52549 | 40951 ft | 565 kts | 97° |
| 2026-04-24 23:37 | 23.45125 | 47.65300 | 40935 ft | 564 kts | 97° |
| 2026-04-24 23:38 | 23.44294 | 47.73726 | 40936 ft | 563 kts | 97° |
| 2026-04-24 23:38 | 23.43457 | 47.82194 | 40926 ft | 563 kts | 97° |
| 2026-04-24 23:39 | 23.42615 | 47.90663 | 40923 ft | 562 kts | 97° |
| 2026-04-24 23:39 | 23.41770 | 47.99116 | 40901 ft | 562 kts | 97° |
| 2026-04-24 23:40 | 23.40927 | 48.07515 | 40913 ft | 561 kts | 97° |
| 2026-04-24 23:40 | 23.40075 | 48.15951 | 40909 ft | 561 kts | 97° |
| 2026-04-24 23:41 | 23.39218 | 48.24385 | 40892 ft | 560 kts | 97° |
| 2026-04-24 23:41 | 23.38356 | 48.32817 | 40895 ft | 560 kts | 97° |
| 2026-04-24 23:42 | 23.37559 | 48.41190 | 40892 ft | 560 kts | 96° |
| 2026-04-24 23:42 | 23.36855 | 48.49626 | 40892 ft | 559 kts | 96° |
| 2026-04-24 23:43 | 23.36148 | 48.58048 | 40889 ft | 558 kts | 96° |
| 2026-04-24 23:43 | 23.35419 | 48.66460 | 40888 ft | 558 kts | 96° |
| 2026-04-24 23:44 | 23.34683 | 48.74811 | 40886 ft | 558 kts | 96° |
| 2026-04-24 23:44 | 23.33937 | 48.83211 | 40871 ft | 557 kts | 96° |
| 2026-04-24 23:45 | 23.33188 | 48.91606 | 40881 ft | 558 kts | 96° |
| 2026-04-24 23:45 | 23.32436 | 48.99992 | 40881 ft | 558 kts | 96° |
| 2026-04-24 23:46 | 23.31682 | 49.08338 | 40879 ft | 558 kts | 96° |
| 2026-04-24 23:46 | 23.30920 | 49.16731 | 40873 ft | 557 kts | 96° |
| 2026-04-24 23:47 | 23.30155 | 49.25105 | 40876 ft | 557 kts | 96° |
| 2026-04-24 23:47 | 23.29385 | 49.33485 | 40870 ft | 556 kts | 96° |
| 2026-04-24 23:48 | 23.28618 | 49.41787 | 40873 ft | 556 kts | 96° |
| 2026-04-24 23:48 | 23.27839 | 49.50166 | 40870 ft | 556 kts | 96° |
| 2026-04-24 23:49 | 23.27057 | 49.58533 | 40870 ft | 556 kts | 96° |
| 2026-04-24 23:49 | 23.26271 | 49.66888 | 40870 ft | 555 kts | 96° |
| 2026-04-24 23:50 | 23.25486 | 49.75186 | 40872 ft | 555 kts | 96° |
| 2026-04-24 23:50 | 23.24693 | 49.83531 | 40867 ft | 554 kts | 96° |
| 2026-04-24 23:51 | 23.23895 | 49.91867 | 40867 ft | 554 kts | 96° |
| 2026-04-24 23:51 | 23.23093 | 50.00200 | 40869 ft | 554 kts | 96° |
| 2026-04-24 23:52 | 23.22294 | 50.08461 | 40868 ft | 553 kts | 96° |
| 2026-04-24 23:52 | 23.21486 | 50.16771 | 40871 ft | 553 kts | 96° |
| 2026-04-24 23:53 | 23.20672 | 50.25089 | 40866 ft | 553 kts | 96° |
| 2026-04-24 23:53 | 23.19856 | 50.33393 | 40870 ft | 552 kts | 96° |
| 2026-04-24 23:54 | 23.19041 | 50.41633 | 40870 ft | 552 kts | 96° |
| 2026-04-24 23:54 | 23.18217 | 50.49925 | 40868 ft | 551 kts | 96° |
| 2026-04-24 23:55 | 23.17389 | 50.58201 | 40862 ft | 551 kts | 97° |
| 2026-04-24 23:55 | 23.16557 | 50.66479 | 40849 ft | 551 kts | 96° |
| 2026-04-24 23:56 | 23.15722 | 50.74741 | 40862 ft | 550 kts | 96° |
| 2026-04-24 23:56 | 23.14889 | 50.82946 | 40862 ft | 550 kts | 96° |
| 2026-04-24 23:57 | 23.14047 | 50.91198 | 40863 ft | 549 kts | 96° |
| 2026-04-24 23:57 | 23.13201 | 50.99447 | 40862 ft | 549 kts | 96° |
| 2026-04-24 23:58 | 23.12356 | 51.07637 | 40862 ft | 549 kts | 96° |
| 2026-04-24 23:58 | 23.11501 | 51.15879 | 40862 ft | 549 kts | 96° |
| 2026-04-24 23:59 | 23.10642 | 51.24123 | 40862 ft | 549 kts | 97° |
| 2026-04-24 23:59 | 23.09779 | 51.32359 | 40858 ft | 549 kts | 96° |
| 2026-04-25 00:00 | 23.09237 | 51.40632 | 40860 ft | 549 kts | 91° |
| 2026-04-25 00:00 | 23.08981 | 51.48849 | 40859 ft | 548 kts | 91° |
| 2026-04-25 00:01 | 23.08686 | 51.57126 | 40856 ft | 548 kts | 92° |
| 2026-04-25 00:01 | 23.08326 | 51.65395 | 40854 ft | 548 kts | 92° |
| 2026-04-25 00:02 | 23.07939 | 51.73660 | 40857 ft | 548 kts | 92° |
| 2026-04-25 00:02 | 23.07548 | 51.81867 | 40859 ft | 548 kts | 92° |
| 2026-04-25 00:03 | 23.07153 | 51.90128 | 40854 ft | 548 kts | 92° |
| 2026-04-25 00:03 | 23.06756 | 51.98383 | 40854 ft | 548 kts | 92° |
| 2026-04-25 00:04 | 23.06354 | 52.06645 | 40852 ft | 548 kts | 92° |
| 2026-04-25 00:04 | 23.05952 | 52.14835 | 40851 ft | 547 kts | 92° |
| 2026-04-25 00:05 | 23.05542 | 52.23086 | 40851 ft | 547 kts | 92° |
| 2026-04-25 00:05 | 23.05128 | 52.31336 | 40851 ft | 547 kts | 92° |
| 2026-04-25 00:06 | 23.04710 | 52.39581 | 40851 ft | 547 kts | 92° |
| 2026-04-25 00:06 | 23.04310 | 52.47767 | 40846 ft | 546 kts | 90° |
| 2026-04-25 00:07 | 23.05055 | 52.55934 | 40850 ft | 543 kts | 78° |
| 2026-04-25 00:07 | 23.06398 | 52.63993 | 40851 ft | 542 kts | 77° |
| 2026-04-25 00:08 | 23.07826 | 52.72031 | 40849 ft | 542 kts | 77° |
| 2026-04-25 00:08 | 23.09231 | 52.80012 | 40847 ft | 542 kts | 77° |
| 2026-04-25 00:09 | 23.10619 | 52.88042 | 40848 ft | 540 kts | 77° |
| 2026-04-25 00:09 | 23.11995 | 52.96062 | 40849 ft | 540 kts | 77° |
| 2026-04-25 00:10 | 23.13365 | 53.04075 | 40848 ft | 540 kts | 77° |
| 2026-04-25 00:10 | 23.14722 | 53.12036 | 40846 ft | 539 kts | 77° |
| 2026-04-25 00:11 | 23.16084 | 53.20043 | 40845 ft | 539 kts | 77° |
| 2026-04-25 00:11 | 23.17441 | 53.28048 | 40852 ft | 539 kts | 77° |
| 2026-04-25 00:12 | 23.18794 | 53.36058 | 40851 ft | 539 kts | 77° |
| 2026-04-25 00:12 | 23.20144 | 53.44071 | 40851 ft | 539 kts | 77° |
| 2026-04-25 00:13 | 23.21479 | 53.52024 | 40846 ft | 538 kts | 77° |
| 2026-04-25 00:13 | 23.22818 | 53.60026 | 40843 ft | 538 kts | 77° |
| 2026-04-25 00:14 | 23.24153 | 53.68028 | 40846 ft | 537 kts | 77° |
| 2026-04-25 00:14 | 23.25473 | 53.75969 | 40844 ft | 537 kts | 77° |
| 2026-04-25 00:15 | 23.26797 | 53.83962 | 40845 ft | 537 kts | 77° |
| 2026-04-25 00:15 | 23.28118 | 53.91954 | 40846 ft | 537 kts | 77° |
| 2026-04-25 00:16 | 23.29434 | 53.99949 | 40849 ft | 537 kts | 77° |
| 2026-04-25 00:16 | 23.30746 | 54.07941 | 40840 ft | 537 kts | 77° |
| 2026-04-25 00:17 | 23.32045 | 54.15881 | 40840 ft | 537 kts | 77° |
| 2026-04-25 00:17 | 23.33349 | 54.23881 | 40840 ft | 537 kts | 77° |
| 2026-04-25 00:18 | 23.34646 | 54.31869 | 40837 ft | 536 kts | 77° |
| 2026-04-25 00:18 | 23.35941 | 54.39861 | 40838 ft | 536 kts | 77° |
| 2026-04-25 00:19 | 23.37220 | 54.47787 | 40837 ft | 536 kts | 77° |
| 2026-04-25 00:19 | 23.38505 | 54.55774 | 40834 ft | 535 kts | 77° |
| 2026-04-25 00:20 | 23.39785 | 54.63753 | 40834 ft | 535 kts | 77° |
| 2026-04-25 00:20 | 23.41060 | 54.71735 | 40832 ft | 535 kts | 78° |
| 2026-04-25 00:21 | 23.42323 | 54.79665 | 40831 ft | 535 kts | 77° |
| 2026-04-25 00:21 | 23.43589 | 54.87643 | 40834 ft | 534 kts | 77° |
| 2026-04-25 00:22 | 23.44851 | 54.95620 | 40835 ft | 534 kts | 78° |
| 2026-04-25 00:22 | 23.46108 | 55.03596 | 40838 ft | 534 kts | 77° |
| 2026-04-25 00:23 | 23.47353 | 55.11516 | 40843 ft | 534 kts | 77° |
| 2026-04-25 00:23 | 23.48603 | 55.19496 | 40845 ft | 534 kts | 78° |
| 2026-04-25 00:24 | 23.50004 | 55.27429 | 40857 ft | 531 kts | 70° |
| 2026-04-25 00:24 | 23.53084 | 55.34595 | 40851 ft | 518 kts | 50° |
| 2026-04-25 00:25 | 23.55380 | 55.37582 | 40858 ft | 509 kts | 39° |
| 2026-04-25 00:25 | 23.58028 | 55.40003 | 40857 ft | 500 kts | 28° |
| 2026-04-25 00:25 | 23.64184 | 55.43167 | 40859 ft | 483 kts | 8° |
| 2026-04-25 00:26 | 23.67432 | 55.43877 | 40458 ft | 472 kts | 0° |
| 2026-04-25 00:26 | 23.70687 | 55.44468 | 39648 ft | 479 kts | 6° |
| 2026-04-25 00:26 | 23.73956 | 55.45301 | 38853 ft | 484 kts | 7° |
| 2026-04-25 00:26 | 23.77243 | 55.46179 | 38055 ft | 487 kts | 8° |
| 2026-04-25 00:27 | 23.80518 | 55.47094 | 37398 ft | 486 kts | 9° |
| 2026-04-25 00:27 | 23.83774 | 55.48035 | 36785 ft | 484 kts | 9° |
| 2026-04-25 00:27 | 23.86988 | 55.48983 | 36083 ft | 485 kts | 10° |
| 2026-04-25 00:27 | 23.90246 | 55.49952 | 35373 ft | 486 kts | 10° |
| 2026-04-25 00:28 | 23.93516 | 55.50926 | 34593 ft | 489 kts | 11° |
| 2026-04-25 00:28 | 23.96811 | 55.51915 | 33760 ft | 494 kts | 12° |
| 2026-04-25 00:28 | 24.00039 | 55.53276 | 32825 ft | 503 kts | 23° |
| 2026-04-25 00:28 | 24.03030 | 55.55320 | 31913 ft | 511 kts | 36° |
| 2026-04-25 00:29 | 24.05795 | 55.57781 | 30971 ft | 516 kts | 38° |
| 2026-04-25 00:29 | 24.08489 | 55.60376 | 30304 ft | 515 kts | 40° |
| 2026-04-25 00:29 | 24.11090 | 55.62976 | 29630 ft | 512 kts | 41° |
| 2026-04-25 00:29 | 24.13698 | 55.65615 | 28954 ft | 508 kts | 41° |
| 2026-04-25 00:30 | 24.16281 | 55.68228 | 28303 ft | 503 kts | 41° |
| 2026-04-25 00:30 | 24.18844 | 55.70808 | 27671 ft | 499 kts | 41° |
| 2026-04-25 00:30 | 24.21398 | 55.73364 | 27040 ft | 495 kts | 40° |
| 2026-04-25 00:30 | 24.23934 | 55.75893 | 26416 ft | 491 kts | 40° |
| 2026-04-25 00:31 | 24.26454 | 55.78400 | 25796 ft | 487 kts | 40° |
| 2026-04-25 00:31 | 24.28951 | 55.80882 | 25175 ft | 483 kts | 40° |
| 2026-04-25 00:31 | 24.31404 | 55.83321 | 24553 ft | 480 kts | 40° |
| 2026-04-25 00:31 | 24.33866 | 55.85770 | 23945 ft | 476 kts | 40° |
| 2026-04-25 00:32 | 24.36307 | 55.88200 | 23330 ft | 473 kts | 40° |
| 2026-04-25 00:32 | 24.38726 | 55.90610 | 22668 ft | 468 kts | 40° |
| 2026-04-25 00:32 | 24.43491 | 55.95359 | 21476 ft | 455 kts | 40° |
| 2026-04-25 00:33 | 24.45821 | 55.97683 | 20873 ft | 450 kts | 40° |
| 2026-04-25 00:33 | 24.48120 | 55.99978 | 20266 ft | 444 kts | 41° |
| 2026-04-25 00:33 | 24.50359 | 56.02214 | 19710 ft | 439 kts | 41° |
| 2026-04-25 00:33 | 24.52604 | 56.04457 | 19105 ft | 434 kts | 41° |
| 2026-04-25 00:34 | 24.54829 | 56.06680 | 18520 ft | 430 kts | 41° |
| 2026-04-25 00:34 | 24.57025 | 56.08876 | 17881 ft | 425 kts | 41° |
| 2026-04-25 00:34 | 24.59317 | 56.10876 | 17256 ft | 418 kts | 31° |
| 2026-04-25 00:34 | 24.61918 | 56.12223 | 16692 ft | 410 kts | 17° |
| 2026-04-25 00:35 | 24.64641 | 56.13054 | 16101 ft | 404 kts | 12° |
| 2026-04-25 00:35 | 24.67372 | 56.13664 | 15540 ft | 398 kts | 9° |
| 2026-04-25 00:35 | 24.70087 | 56.14159 | 14987 ft | 393 kts | 7° |
| 2026-04-25 00:35 | 24.72775 | 56.14605 | 14441 ft | 388 kts | 7° |
| 2026-04-25 00:36 | 24.75433 | 56.15042 | 13886 ft | 385 kts | 7° |
| 2026-04-25 00:36 | 24.78036 | 56.15295 | 13738 ft | 367 kts | 358° |
| 2026-04-25 00:36 | 24.80484 | 56.14871 | 13617 ft | 348 kts | 341° |
| 2026-04-25 00:36 | 24.82706 | 56.13960 | 13476 ft | 333 kts | 336° |
| 2026-04-25 00:37 | 24.84792 | 56.12981 | 13329 ft | 319 kts | 335° |
| 2026-04-25 00:37 | 24.86699 | 56.11848 | 13024 ft | 310 kts | 324° |
| 2026-04-25 00:37 | 24.88277 | 56.10263 | 12362 ft | 305 kts | 307° |
| 2026-04-25 00:37 | 24.89413 | 56.08304 | 11533 ft | 303 kts | 297° |
| 2026-04-25 00:38 | 24.90399 | 56.06260 | 10737 ft | 301 kts | 296° |
| 2026-04-25 00:38 | 24.91335 | 56.04263 | 10416 ft | 283 kts | 296° |
| 2026-04-25 00:38 | 24.92211 | 56.02388 | 10096 ft | 270 kts | 296° |
| 2026-04-25 00:38 | 24.93075 | 56.00531 | 9795 ft | 279 kts | 295° |
| 2026-04-25 00:39 | 24.93977 | 55.98588 | 9645 ft | 288 kts | 296° |
| 2026-04-25 00:39 | 24.94877 | 55.96652 | 9218 ft | 279 kts | 296° |
| 2026-04-25 00:39 | 24.95771 | 55.94730 | 8794 ft | 283 kts | 296° |
| 2026-04-25 00:39 | 24.96669 | 55.92795 | 8447 ft | 284 kts | 296° |
| 2026-04-25 00:40 | 24.97567 | 55.90863 | 8117 ft | 282 kts | 296° |
| 2026-04-25 00:40 | 24.98459 | 55.88944 | 7780 ft | 281 kts | 296° |
| 2026-04-25 00:40 | 24.99344 | 55.87036 | 7468 ft | 279 kts | 296° |
| 2026-04-25 00:40 | 25.00227 | 55.85132 | 7142 ft | 278 kts | 296° |
| 2026-04-25 00:41 | 25.01104 | 55.83241 | 6828 ft | 278 kts | 296° |
| 2026-04-25 00:41 | 25.01980 | 55.81352 | 6535 ft | 273 kts | 296° |
| 2026-04-25 00:41 | 25.02842 | 55.79491 | 6182 ft | 273 kts | 296° |
| 2026-04-25 00:41 | 25.03669 | 55.77616 | 5839 ft | 272 kts | 289° |
| 2026-04-25 00:42 | 25.04065 | 55.75564 | 5683 ft | 274 kts | 283° |
| 2026-04-25 00:42 | 25.04657 | 55.73622 | 5633 ft | 260 kts | 295° |
| 2026-04-25 00:42 | 25.05472 | 55.71932 | 5432 ft | 240 kts | 300° |
| 2026-04-25 00:42 | 25.06299 | 55.70408 | 5248 ft | 223 kts | 301° |
| 2026-04-25 00:43 | 25.07085 | 55.69005 | 5079 ft | 208 kts | 301° |
| 2026-04-25 00:43 | 25.07844 | 55.67669 | 4813 ft | 206 kts | 302° |
| 2026-04-25 00:43 | 25.08622 | 55.66310 | 4320 ft | 211 kts | 302° |
| 2026-04-25 00:43 | 25.09392 | 55.64976 | 4057 ft | 199 kts | 302° |
| 2026-04-25 00:44 | 25.10127 | 55.63706 | 4026 ft | 196 kts | 302° |
| 2026-04-25 00:44 | 25.10856 | 55.62442 | 4019 ft | 195 kts | 302° |
| 2026-04-25 00:44 | 25.11564 | 55.61163 | 4012 ft | 195 kts | 301° |
| 2026-04-25 00:44 | 25.12269 | 55.59884 | 4012 ft | 195 kts | 301° |
| 2026-04-25 00:45 | 25.12976 | 55.58605 | 4010 ft | 195 kts | 301° |
| 2026-04-25 00:45 | 25.13707 | 55.57358 | 3959 ft | 190 kts | 306° |
| 2026-04-25 00:45 | 25.14429 | 55.56134 | 3643 ft | 192 kts | 301° |
| 2026-04-25 00:45 | 25.15128 | 55.54875 | 3278 ft | 193 kts | 301° |
| 2026-04-25 00:46 | 25.15822 | 55.53599 | 2961 ft | 194 kts | 301° |
| 2026-04-25 00:46 | 25.16507 | 55.52327 | 2752 ft | 193 kts | 301° |
| 2026-04-25 00:46 | 25.17864 | 55.49831 | 2457 ft | 176 kts | 302° |
| 2026-04-25 00:47 | 25.18471 | 55.48725 | 2327 ft | 164 kts | 302° |
| 2026-04-25 00:47 | 25.19048 | 55.47683 | 2231 ft | 154 kts | 303° |
| 2026-04-25 00:47 | 25.19623 | 55.46653 | 1776 ft | 163 kts | 303° |
| 2026-04-25 00:47 | 25.20224 | 55.45572 | 1356 ft | 164 kts | 302° |
| 2026-04-25 00:48 | 25.20804 | 55.44526 | 1057 ft | 155 kts | 302° |
| 2026-04-25 00:48 | 25.21344 | 55.43554 | 887 ft | 144 kts | 302° |
| 2026-04-25 00:48 | 25.21850 | 55.42637 | 710 ft | 137 kts | 302° |
| 2026-04-25 00:48 | 25.22349 | 55.41737 | 540 ft | 138 kts | 301° |
| 2026-04-25 00:49 | 25.22851 | 55.40833 | 362 ft | 138 kts | 301° |
| 2026-04-25 00:49 | 25.23354 | 55.39925 | 167 ft | 139 kts | 301° |
| 2026-04-25 00:49 | 25.23833 | 55.39053 | 39 ft | 136 kts | 303° |
| 2026-04-25 00:49 | 25.24266 | 55.38273 | 38 ft | 95 kts | 301° |
| 2026-04-25 00:50 | 25.24539 | 55.37781 | 34 ft | 62 kts | 302° |
| 2026-04-25 00:50 | 25.24724 | 55.37447 | 34 ft | 38 kts | 301° |
| 2026-04-25 00:50 | 25.24782 | 55.37238 | 36 ft | 28 kts | 276° |
| 2026-04-25 00:50 | 25.24787 | 55.37142 | 33 ft | 0 kts | 272° |
| 2026-04-25 00:51 | 25.24788 | 55.37114 | 33 ft | 9 kts | 271° |
| 2026-04-25 00:51 | 25.24786 | 55.37093 | 32 ft | 6 kts | 263° |
| 2026-04-25 00:51 | 25.24788 | 55.37065 | 31 ft | 0 kts | 274° |
| 2026-04-25 00:52 | 25.24788 | 55.37060 | 31 ft | 3 kts | 274° |
| 2026-04-25 00:52 | 25.24793 | 55.37000 | 30 ft | 12 kts | 276° |
| 2026-04-25 00:52 | 25.24809 | 55.36896 | 29 ft | 12 kts | 255° |
| 2026-04-25 00:52 | 25.24753 | 55.36841 | 28 ft | 13 kts | 216° |
| 2026-04-25 00:53 | 25.24660 | 55.36777 | 28 ft | 18 kts | 211° |
| 2026-04-25 00:53 | 25.24539 | 55.36695 | 27 ft | 23 kts | 212° |
| 2026-04-25 00:53 | 25.24449 | 55.36574 | 27 ft | 20 kts | 255° |
| 2026-04-25 00:53 | 25.24487 | 55.36438 | 27 ft | 16 kts | 302° |
| 2026-04-25 00:54 | 25.24512 | 55.36395 | 27 ft | 0 kts | 302° |
| 2026-04-25 00:54 | 25.24519 | 55.36382 | 27 ft | 5 kts | 301° |
| 2026-04-25 00:54 | 25.24546 | 55.36332 | 27 ft | 6 kts | 301° |
| 2026-04-25 00:55 | 25.24566 | 55.36297 | 27 ft | 9 kts | 301° |
| 2026-04-25 00:55 | 25.24608 | 55.36221 | 27 ft | 14 kts | 302° |
| 2026-04-25 00:55 | 25.24668 | 55.36115 | 27 ft | 16 kts | 302° |
| 2026-04-25 00:55 | 25.24736 | 55.35994 | 27 ft | 21 kts | 301° |
| 2026-04-25 00:56 | 25.24820 | 55.35844 | 27 ft | 25 kts | 301° |
| 2026-04-25 00:56 | 25.24915 | 55.35690 | 27 ft | 24 kts | 307° |
| 2026-04-25 00:56 | 25.25002 | 55.35546 | 27 ft | 24 kts | 302° |
| 2026-04-25 00:56 | 25.25061 | 55.35441 | 27 ft | 13 kts | 302° |
| 2026-04-25 00:57 | 25.25113 | 55.35361 | 27 ft | 3 kts | 332° |
| 2026-04-25 00:57 | 25.25128 | 55.35368 | 27 ft | 4 kts | 26° |
| 2026-04-25 00:57 | 25.25165 | 55.35390 | 27 ft | 8 kts | 30° |
| 2026-04-25 00:57 | 25.25184 | 55.35403 | 27 ft | 0 kts | 31° |